createdAt,value
2017-08-27T00:00:00.330Z,19.50
2017-08-27T00:02:29.364Z,19.50
2017-08-27T00:04:58.826Z,19.40
2017-08-27T00:07:29.949Z,19.30
2017-08-27T00:10:00.779Z,19.40
2017-08-27T00:12:31.081Z,19.20
2017-08-27T00:14:59.019Z,19.30
2017-08-27T00:17:32.563Z,19.40
2017-08-27T00:20:00.326Z,19.30
2017-08-27T00:22:29.093Z,19.40
2017-08-27T00:24:58.501Z,19.40
2017-08-27T00:27:36.943Z,19.40
2017-08-27T00:30:06.946Z,19.40
2017-08-27T00:32:33.462Z,19.30
2017-08-27T00:35:00.070Z,19.40
2017-08-27T00:37:31.069Z,19.30
2017-08-27T00:40:00.743Z,19.30
2017-08-27T00:42:41.625Z,19.20
2017-08-27T00:45:21.086Z,19.20
2017-08-27T00:48:00.109Z,19.30
2017-08-27T00:50:30.918Z,19.30
2017-08-27T00:53:00.986Z,19.10
2017-08-27T00:55:31.036Z,19.10
2017-08-27T00:58:00.169Z,19.20
2017-08-27T01:00:30.979Z,19.20
2017-08-27T01:03:00.233Z,19.20
2017-08-27T01:05:28.867Z,19.20
2017-08-27T01:08:04.336Z,19.10
2017-08-27T01:10:32.182Z,19.30
2017-08-27T01:13:00.058Z,19.40
2017-08-27T01:15:30.169Z,19.40
2017-08-27T01:18:00.623Z,19.40
2017-08-27T01:20:33.235Z,19.50
2017-08-27T01:23:00.170Z,19.60
2017-08-27T01:25:30.276Z,19.20
2017-08-27T01:27:59.167Z,19.70
2017-08-27T01:30:30.069Z,19.80
2017-08-27T01:32:58.123Z,19.80
2017-08-27T01:35:28.114Z,19.80
2017-08-27T01:38:00.055Z,19.80
2017-08-27T01:40:30.927Z,19.70
2017-08-27T01:42:59.991Z,19.70
2017-08-27T01:45:30.230Z,19.80
2017-08-27T01:48:09.395Z,19.80
2017-08-27T01:50:37.209Z,19.80
2017-08-27T01:53:03.833Z,19.60
2017-08-27T01:55:31.043Z,19.50
2017-08-27T01:58:00.011Z,19.50
2017-08-27T02:00:31.083Z,19.60
2017-08-27T02:03:02.198Z,19.40
2017-08-27T02:05:32.460Z,19.40
2017-08-27T02:08:00.099Z,19.50
2017-08-27T02:10:30.113Z,19.50
2017-08-27T02:13:00.649Z,19.50
2017-08-27T02:15:31.025Z,19.60
2017-08-27T02:18:01.141Z,19.60
2017-08-27T02:20:37.124Z,19.50
2017-08-27T02:23:04.084Z,19.60
2017-08-27T02:25:31.395Z,19.50
2017-08-27T02:28:00.213Z,19.50
2017-08-27T02:30:29.661Z,19.50
2017-08-27T02:33:00.004Z,19.50
2017-08-27T02:35:29.147Z,19.50
2017-08-27T02:38:00.300Z,19.50
2017-08-27T02:40:28.656Z,19.40
2017-08-27T02:42:58.593Z,19.50
2017-08-27T02:45:30.507Z,19.50
2017-08-27T02:47:59.438Z,19.50
2017-08-27T02:50:28.684Z,19.60
2017-08-27T02:52:59.092Z,19.10
2017-08-27T02:55:29.247Z,19.60
2017-08-27T02:58:00.515Z,19.60
2017-08-27T03:00:31.081Z,19.60
2017-08-27T03:03:01.331Z,19.70
2017-08-27T03:05:30.640Z,19.60
2017-08-27T03:08:01.387Z,19.60
2017-08-27T03:10:31.536Z,19.70
2017-08-27T03:13:16.846Z,19.70
2017-08-27T03:15:55.980Z,19.60
2017-08-27T03:18:34.831Z,19.60
2017-08-27T03:21:04.331Z,19.60
2017-08-27T03:23:31.422Z,19.60
2017-08-27T03:26:01.355Z,19.60
2017-08-27T03:28:32.257Z,19.60
2017-08-27T03:31:01.136Z,19.70
2017-08-27T03:33:35.157Z,19.50
2017-08-27T03:36:02.813Z,19.50
2017-08-27T03:38:31.670Z,19.50
2017-08-27T03:40:59.137Z,19.30
2017-08-27T03:43:28.728Z,19.30
2017-08-27T03:46:00.744Z,19.40
2017-08-27T03:48:30.497Z,19.40
2017-08-27T03:50:59.469Z,19.40
2017-08-27T03:53:29.961Z,19.40
2017-08-27T03:56:01.920Z,19.40
2017-08-27T03:58:29.603Z,19.40
2017-08-27T04:03:35.758Z,19.40
2017-08-27T04:06:05.333Z,19.40
2017-08-27T04:08:32.853Z,19.20
2017-08-27T04:11:00.718Z,19.10
2017-08-27T04:13:31.553Z,19.30
2017-08-27T04:15:59.213Z,19.20
2017-08-27T04:18:31.133Z,19.30
2017-08-27T04:21:01.416Z,19.30
2017-08-27T04:23:31.665Z,19.30
2017-08-27T04:26:07.650Z,19.20
2017-08-27T04:28:35.218Z,19.20
2017-08-27T04:31:01.840Z,19.20
2017-08-27T04:33:29.466Z,19.10
2017-08-27T04:35:58.022Z,19.10
2017-08-27T04:38:30.842Z,19.10
2017-08-27T04:41:00.544Z,19.00
2017-08-27T04:43:29.362Z,19.00
2017-08-27T04:45:59.856Z,18.90
2017-08-27T04:48:31.293Z,18.90
2017-08-27T04:51:00.295Z,18.80
2017-08-27T04:53:29.236Z,18.90
2017-08-27T04:56:03.279Z,18.80
2017-08-27T04:58:31.191Z,18.80
2017-08-27T05:01:00.305Z,18.70
2017-08-27T05:03:31.365Z,18.40
2017-08-27T05:06:08.510Z,18.60
2017-08-27T05:08:38.340Z,18.60
2017-08-27T05:11:04.965Z,18.70
2017-08-27T05:13:31.421Z,18.80
2017-08-27T05:16:01.329Z,18.80
2017-08-27T05:18:31.732Z,18.90
2017-08-27T05:21:03.091Z,18.80
2017-08-27T05:23:31.966Z,18.70
2017-08-27T05:26:01.480Z,18.80
2017-08-27T05:28:31.960Z,18.90
2017-08-27T05:31:00.670Z,18.90
2017-08-27T05:33:30.651Z,18.80
2017-08-27T05:36:00.677Z,18.80
2017-08-27T05:38:36.964Z,18.80
2017-08-27T05:41:04.187Z,18.80
2017-08-27T05:43:33.754Z,18.90
2017-08-27T05:46:01.633Z,18.90
2017-08-27T05:48:29.662Z,18.90
2017-08-27T05:50:59.859Z,18.90
2017-08-27T05:53:29.329Z,18.70
2017-08-27T05:56:00.466Z,18.50
2017-08-27T05:58:30.755Z,18.70
2017-08-27T06:00:59.305Z,18.90
2017-08-27T06:03:27.794Z,19.20
2017-08-27T06:05:57.623Z,19.50
2017-08-27T06:08:31.513Z,20.10
2017-08-27T06:10:59.361Z,20.40
2017-08-27T06:13:27.084Z,20.70
2017-08-27T06:15:59.502Z,20.80
2017-08-27T06:18:30.344Z,20.90
2017-08-27T06:21:07.613Z,21.10
2017-08-27T06:23:34.465Z,21.20
2017-08-27T06:26:01.669Z,21.60
2017-08-27T06:28:30.724Z,21.80
2017-08-27T06:31:00.510Z,21.20
2017-08-27T06:33:29.570Z,21.80
2017-08-27T06:36:00.434Z,22.30
2017-08-27T06:38:30.575Z,21.80
2017-08-27T06:40:59.553Z,21.40
2017-08-27T06:43:31.648Z,21.70
2017-08-27T06:46:01.454Z,21.60
2017-08-27T06:48:31.480Z,21.60
2017-08-27T06:51:02.545Z,21.30
2017-08-27T06:53:30.738Z,20.90
2017-08-27T06:56:09.921Z,20.60
2017-08-27T06:58:43.470Z,21.40
2017-08-27T07:01:11.570Z,21.00
2017-08-27T07:03:37.825Z,20.10
2017-08-27T07:06:04.093Z,19.80
2017-08-27T07:08:31.294Z,19.90
2017-08-27T07:11:03.273Z,19.80
2017-08-27T07:13:29.769Z,20.10
2017-08-27T07:15:59.502Z,20.60
2017-08-27T07:18:27.895Z,21.20
2017-08-27T07:20:58.417Z,21.10
2017-08-27T07:23:29.464Z,21.40
2017-08-27T07:25:59.585Z,21.50
2017-08-27T07:28:34.305Z,21.00
2017-08-27T07:31:01.778Z,21.10
2017-08-27T07:33:29.690Z,21.10
2017-08-27T07:36:05.990Z,20.90
2017-08-27T07:38:34.871Z,21.30
2017-08-27T07:41:11.891Z,21.90
2017-08-27T07:43:41.718Z,22.10
2017-08-27T07:46:08.008Z,22.10
2017-08-27T07:48:34.407Z,22.00
2017-08-27T07:51:01.002Z,21.80
2017-08-27T07:53:30.761Z,21.10
2017-08-27T07:56:01.178Z,20.70
2017-08-27T08:01:29.649Z,20.90
2017-08-27T08:03:59.838Z,21.10
2017-08-27T08:06:31.998Z,20.90
2017-08-27T08:09:01.962Z,21.00
2017-08-27T08:11:32.277Z,21.20
2017-08-27T08:14:00.125Z,21.30
2017-08-27T08:16:30.978Z,21.00
2017-08-27T08:18:59.932Z,20.90
2017-08-27T08:21:37.280Z,20.80
2017-08-27T08:24:05.249Z,20.90
2017-08-27T08:26:31.814Z,21.30
2017-08-27T08:29:02.066Z,21.10
2017-08-27T08:31:31.765Z,21.90
2017-08-27T08:36:53.315Z,22.20
2017-08-27T08:39:26.342Z,22.30
2017-08-27T08:41:59.718Z,22.20
2017-08-27T08:44:29.180Z,22.10
2017-08-27T08:47:02.022Z,22.50
2017-08-27T08:49:31.048Z,22.30
2017-08-27T08:52:01.010Z,21.90
2017-08-27T08:54:31.181Z,22.00
2017-08-27T08:57:00.210Z,22.00
2017-08-27T08:59:30.163Z,21.80
2017-08-27T09:02:05.720Z,21.50
2017-08-27T09:04:32.684Z,21.20
2017-08-27T09:06:59.432Z,21.40
2017-08-27T09:09:28.721Z,21.80
2017-08-27T09:12:02.266Z,22.20
2017-08-27T09:14:29.189Z,22.20
2017-08-27T09:16:57.650Z,21.70
2017-08-27T09:19:25.786Z,22.10
2017-08-27T09:21:55.453Z,22.30
2017-08-27T09:24:30.232Z,22.40
2017-08-27T09:27:00.319Z,22.20
2017-08-27T09:29:31.339Z,22.00
2017-08-27T09:32:01.560Z,21.90
2017-08-27T09:34:43.279Z,22.00
2017-08-27T09:37:29.065Z,22.60
2017-08-27T09:40:09.998Z,22.90
2017-08-27T09:42:40.133Z,22.90
2017-08-27T09:48:01.349Z,23.10
2017-08-27T09:50:33.570Z,23.50
2017-08-27T09:53:01.340Z,23.60
2017-08-27T09:55:31.888Z,24.10
2017-08-27T09:58:01.758Z,24.30
2017-08-27T10:00:35.430Z,24.30
2017-08-27T10:03:02.035Z,24.30
2017-08-27T10:05:35.507Z,24.20
2017-08-27T10:08:04.954Z,24.80
2017-08-27T10:10:32.862Z,24.80
2017-08-27T10:13:01.635Z,25.10
2017-08-27T10:15:31.680Z,24.40
2017-08-27T10:18:01.769Z,24.90
2017-08-27T10:20:31.818Z,24.90
2017-08-27T10:23:01.969Z,24.90
2017-08-27T10:25:31.735Z,25.00
2017-08-27T10:28:06.588Z,24.70
2017-08-27T10:30:32.874Z,25.00
2017-08-27T10:32:59.233Z,25.40
2017-08-27T10:35:29.718Z,24.90
2017-08-27T10:37:59.640Z,25.30
2017-08-27T10:40:29.654Z,25.70
2017-08-27T10:43:05.111Z,25.80
2017-08-27T10:45:32.080Z,25.50
2017-08-27T10:48:05.677Z,25.60
2017-08-27T10:53:29.040Z,25.70
2017-08-27T10:55:59.488Z,25.20
2017-08-27T10:58:32.957Z,25.20
2017-08-27T11:01:23.257Z,25.30
2017-08-27T11:06:41.647Z,25.60
2017-08-27T11:09:08.097Z,25.50
2017-08-27T11:11:34.842Z,25.40
2017-08-27T11:14:02.302Z,25.60
2017-08-27T11:16:36.313Z,25.50
2017-08-27T11:19:02.983Z,25.60
2017-08-27T11:21:32.510Z,25.60
2017-08-27T11:24:01.391Z,25.30
2017-08-27T11:26:32.328Z,25.60
2017-08-27T11:29:06.292Z,25.40
2017-08-27T11:31:32.683Z,25.20
2017-08-27T11:34:01.515Z,25.50
2017-08-27T11:36:32.567Z,24.70
2017-08-27T11:39:05.794Z,25.10
2017-08-27T11:41:34.747Z,25.20
2017-08-27T11:44:01.650Z,25.60
2017-08-27T11:46:32.476Z,25.30
2017-08-27T11:49:10.139Z,25.50
2017-08-27T11:51:40.674Z,25.00
2017-08-27T11:54:07.011Z,25.20
2017-08-27T11:56:35.826Z,24.80
2017-08-27T11:59:02.275Z,24.50
2017-08-27T12:01:34.241Z,24.30
2017-08-27T12:04:06.363Z,24.40
2017-08-27T12:10:04.821Z,25.30
2017-08-27T12:12:31.306Z,26.00
2017-08-27T12:15:02.892Z,26.20
2017-08-27T12:17:31.082Z,26.10
2017-08-27T12:20:02.035Z,26.70
2017-08-27T12:22:30.424Z,27.00
2017-08-27T12:25:01.881Z,27.20
2017-08-27T12:27:31.742Z,26.60
2017-08-27T12:30:01.971Z,26.40
2017-08-27T12:32:30.408Z,26.30
2017-08-27T12:35:11.530Z,26.30
2017-08-27T12:37:42.185Z,26.00
2017-08-27T12:40:30.785Z,26.10
2017-08-27T12:43:02.325Z,26.10
2017-08-27T12:45:36.563Z,25.30
2017-08-27T12:48:02.939Z,25.80
2017-08-27T12:50:35.114Z,26.20
2017-08-27T12:53:01.519Z,25.90
2017-08-27T12:55:31.306Z,26.20
2017-08-27T13:00:59.334Z,26.00
2017-08-27T13:03:30.144Z,26.10
2017-08-27T13:06:00.483Z,25.80
2017-08-27T13:08:29.449Z,25.40
2017-08-27T13:11:01.247Z,25.60
2017-08-27T13:13:34.631Z,25.90
2017-08-27T13:16:01.323Z,26.20
2017-08-27T13:18:38.263Z,26.40
2017-08-27T13:21:11.846Z,26.70
2017-08-27T13:23:38.365Z,26.90
2017-08-27T13:26:04.863Z,26.60
2017-08-27T13:31:27.264Z,26.90
2017-08-27T13:34:00.674Z,26.70
2017-08-27T13:36:29.339Z,26.60
2017-08-27T13:39:01.417Z,26.30
2017-08-27T13:41:29.844Z,26.40
2017-08-27T13:43:59.887Z,26.70
2017-08-27T13:46:30.601Z,26.50
2017-08-27T13:49:00.533Z,26.80
2017-08-27T13:51:30.617Z,27.10
2017-08-27T13:54:01.720Z,27.10
2017-08-27T13:56:31.197Z,26.40
2017-08-27T13:59:00.499Z,26.40
2017-08-27T14:01:29.771Z,26.10
2017-08-27T14:03:58.444Z,26.10
2017-08-27T14:06:29.174Z,25.80
2017-08-27T14:08:59.557Z,25.70
2017-08-27T14:11:29.114Z,25.20
2017-08-27T14:14:01.512Z,25.30
2017-08-27T14:16:29.789Z,25.70
2017-08-27T14:19:02.685Z,25.90
2017-08-27T14:21:32.782Z,25.80
2017-08-27T14:24:02.650Z,25.80
2017-08-27T14:26:31.146Z,25.30
2017-08-27T14:29:04.929Z,24.50
2017-08-27T14:31:31.663Z,24.40
2017-08-27T14:34:00.925Z,24.50
2017-08-27T14:36:56.137Z,24.60
2017-08-27T14:39:32.583Z,25.00
2017-08-27T14:42:01.941Z,24.90
2017-08-27T14:44:30.793Z,24.90
2017-08-27T14:47:01.870Z,25.00
2017-08-27T14:49:30.968Z,24.90
2017-08-27T14:52:18.472Z,25.20
2017-08-27T14:54:55.239Z,25.30
2017-08-27T14:57:30.410Z,25.60
2017-08-27T15:00:02.032Z,25.30
2017-08-27T15:02:30.833Z,25.30
2017-08-27T15:05:01.146Z,25.50
2017-08-27T15:10:35.583Z,25.60
2017-08-27T15:13:03.956Z,25.30
2017-08-27T15:15:32.275Z,25.50
2017-08-27T15:18:02.122Z,25.30
2017-08-27T15:20:32.447Z,25.60
2017-08-27T15:22:59.998Z,25.40
2017-08-27T15:25:30.758Z,25.40
2017-08-27T15:28:02.431Z,25.50
2017-08-27T15:30:31.041Z,25.70
2017-08-27T15:33:01.301Z,25.60
2017-08-27T15:35:33.791Z,25.50
2017-08-27T15:38:01.999Z,25.20
2017-08-27T15:40:31.050Z,25.00
2017-08-27T15:43:05.068Z,25.10
2017-08-27T15:45:33.861Z,25.20
2017-08-27T15:48:00.695Z,25.30
2017-08-27T15:50:29.697Z,25.20
2017-08-27T15:53:00.213Z,25.10
2017-08-27T15:55:29.845Z,25.00
2017-08-27T15:57:56.580Z,24.70
2017-08-27T16:00:28.285Z,24.60
2017-08-27T16:03:01.999Z,24.50
2017-08-27T16:05:31.750Z,24.20
2017-08-27T16:08:11.399Z,24.20
2017-08-27T16:10:40.694Z,24.30
2017-08-27T16:13:06.978Z,24.30
2017-08-27T16:15:36.051Z,24.10
2017-08-27T16:18:02.429Z,24.30
2017-08-27T16:20:29.229Z,24.30
2017-08-27T16:23:01.779Z,24.30
2017-08-27T16:25:31.981Z,24.10
2017-08-27T16:28:02.895Z,24.20
2017-08-27T16:30:50.339Z,24.40
2017-08-27T16:33:29.383Z,24.30
2017-08-27T16:36:24.767Z,24.50
2017-08-27T16:39:11.515Z,24.60
2017-08-27T16:41:51.669Z,24.50
2017-08-27T16:44:39.939Z,24.50
2017-08-27T16:50:24.294Z,24.40
2017-08-27T16:59:00.529Z,24.50
2017-08-27T17:01:34.365Z,24.40
2017-08-27T17:04:01.583Z,24.30
2017-08-27T17:06:30.669Z,24.30
2017-08-27T17:09:11.952Z,24.30
2017-08-27T17:11:39.569Z,24.30
2017-08-27T17:14:06.307Z,24.30
2017-08-27T17:16:33.090Z,24.20
2017-08-27T17:19:00.894Z,24.10
2017-08-27T17:21:30.757Z,23.80
2017-08-27T17:24:01.736Z,23.80
2017-08-27T17:26:30.821Z,23.90
2017-08-27T17:29:01.730Z,23.80
2017-08-27T17:31:28.823Z,23.60
2017-08-27T17:34:10.485Z,23.50
2017-08-27T17:36:41.730Z,23.50
2017-08-27T17:42:31.178Z,23.60
2017-08-27T17:44:59.614Z,23.50
2017-08-27T17:47:30.902Z,23.50
2017-08-27T17:49:59.776Z,23.40
2017-08-27T17:52:31.856Z,23.40
2017-08-27T17:55:01.761Z,23.40
2017-08-27T17:57:29.884Z,23.40
2017-08-27T17:59:56.897Z,23.50
2017-08-27T18:02:23.509Z,23.50
2017-08-27T18:04:52.494Z,23.50
2017-08-27T18:07:23.283Z,23.50
2017-08-27T18:09:53.521Z,23.50
2017-08-27T18:12:23.098Z,23.40
2017-08-27T18:14:54.028Z,23.40
2017-08-27T18:17:22.946Z,23.40
2017-08-27T18:19:52.130Z,23.70
2017-08-27T18:22:23.072Z,23.30
2017-08-27T18:24:52.221Z,23.10
2017-08-27T18:27:22.039Z,23.20
2017-08-27T18:29:55.415Z,23.10
2017-08-27T18:32:28.197Z,22.90
2017-08-27T18:34:59.570Z,22.70
2017-08-27T18:37:35.790Z,22.70
2017-08-27T18:40:03.619Z,22.60
2017-08-27T18:42:30.166Z,22.40
2017-08-27T18:44:59.946Z,22.30
2017-08-27T18:47:30.718Z,22.20
2017-08-27T18:49:58.787Z,22.20
2017-08-27T18:52:29.785Z,22.10
2017-08-27T18:54:59.230Z,22.10
2017-08-27T18:57:28.673Z,22.00
2017-08-27T18:59:56.585Z,21.90
2017-08-27T19:02:28.592Z,21.80
2017-08-27T19:04:58.219Z,21.80
2017-08-27T19:07:27.410Z,21.70
2017-08-27T19:09:58.259Z,21.60
2017-08-27T19:12:27.300Z,21.60
2017-08-27T19:14:57.888Z,21.40
2017-08-27T19:17:35.346Z,21.30
2017-08-27T19:20:02.896Z,21.30
2017-08-27T19:22:29.266Z,21.30
2017-08-27T19:24:55.674Z,21.20
2017-08-27T19:27:23.292Z,21.20
2017-08-27T19:29:53.279Z,21.10
2017-08-27T19:32:22.989Z,21.00
2017-08-27T19:34:55.103Z,20.90
2017-08-27T19:37:22.692Z,20.90
2017-08-27T19:39:54.792Z,20.80
2017-08-27T19:42:31.905Z,20.80
2017-08-27T19:44:59.963Z,20.60
2017-08-27T19:47:28.088Z,20.50
2017-08-27T19:49:59.180Z,20.50
2017-08-27T19:52:30.462Z,20.50
2017-08-27T19:54:56.790Z,20.30
2017-08-27T19:57:25.429Z,20.10
2017-08-27T19:59:55.840Z,20.10
2017-08-27T20:02:24.865Z,20.10
2017-08-27T20:04:55.197Z,20.20
2017-08-27T20:07:23.742Z,20.20
2017-08-27T20:09:54.685Z,20.10
2017-08-27T20:12:25.644Z,19.80
2017-08-27T20:14:54.282Z,19.80
2017-08-27T20:17:23.700Z,19.90
2017-08-27T20:19:52.696Z,19.90
2017-08-27T20:22:21.888Z,19.90
2017-08-27T20:24:54.828Z,19.80
2017-08-27T20:27:25.502Z,19.80
2017-08-27T20:29:53.921Z,19.40
2017-08-27T20:32:24.177Z,19.70
2017-08-27T20:34:56.458Z,19.70
2017-08-27T20:37:27.445Z,19.70
2017-08-27T20:39:58.728Z,19.70
2017-08-27T20:42:27.027Z,19.70
2017-08-27T20:44:54.151Z,19.60
2017-08-27T20:47:25.739Z,19.60
2017-08-27T20:49:55.261Z,19.60
2017-08-27T20:52:23.668Z,19.50
2017-08-27T20:54:53.764Z,19.50
2017-08-27T20:57:25.318Z,19.40
2017-08-27T20:59:54.479Z,19.30
2017-08-27T21:02:22.598Z,19.30
2017-08-27T21:04:56.508Z,19.30
2017-08-27T21:07:25.511Z,19.10
2017-08-27T21:09:53.538Z,19.20
2017-08-27T21:12:23.091Z,19.20
2017-08-27T21:14:55.615Z,19.10
2017-08-27T21:17:27.543Z,19.10
2017-08-27T21:19:58.086Z,19.10
2017-08-27T21:22:28.262Z,19.10
2017-08-27T21:24:56.371Z,19.00
2017-08-27T21:27:27.977Z,19.00
2017-08-27T21:29:58.436Z,18.80
2017-08-27T21:32:29.099Z,18.80
2017-08-27T21:34:58.694Z,18.80
2017-08-27T21:37:28.179Z,18.80
2017-08-27T21:39:57.197Z,18.80
2017-08-27T21:42:29.614Z,18.80
2017-08-27T21:44:59.937Z,18.80
2017-08-27T21:47:29.442Z,18.70
2017-08-27T21:49:59.443Z,18.70
2017-08-27T21:52:35.310Z,18.60
2017-08-27T21:55:02.650Z,18.60
2017-08-27T21:57:30.338Z,18.60
2017-08-27T22:00:00.006Z,18.60
2017-08-27T22:02:28.958Z,18.60
2017-08-27T22:05:00.299Z,18.60
2017-08-27T22:07:29.937Z,18.50
2017-08-27T22:10:00.637Z,18.50
2017-08-27T22:12:30.416Z,18.50
2017-08-27T22:15:00.345Z,18.50
2017-08-27T22:17:28.209Z,18.40
2017-08-27T22:20:00.283Z,18.40
2017-08-27T22:22:54.083Z,18.40
2017-08-27T22:25:31.837Z,18.40
2017-08-27T22:28:00.341Z,18.30
2017-08-27T22:30:37.238Z,18.30
2017-08-27T22:33:04.887Z,18.30
2017-08-27T22:35:32.718Z,18.20
2017-08-27T22:37:59.562Z,18.30
2017-08-27T22:40:29.417Z,18.20
2017-08-27T22:42:57.456Z,18.20
2017-08-27T22:45:28.474Z,18.20
2017-08-27T22:48:01.374Z,18.10
2017-08-27T22:50:29.729Z,18.10
2017-08-27T22:52:59.213Z,18.10
2017-08-27T22:55:29.717Z,18.00
2017-08-27T22:58:06.290Z,18.00
2017-08-27T23:00:32.820Z,18.00
2017-08-27T23:03:01.482Z,18.00
2017-08-27T23:05:31.453Z,18.00
2017-08-27T23:08:00.478Z,17.90
2017-08-27T23:10:29.052Z,17.90
2017-08-27T23:13:10.784Z,17.90
2017-08-27T23:15:52.903Z,17.80
2017-08-27T23:18:22.026Z,17.80
2017-08-27T23:20:53.312Z,17.80
2017-08-27T23:23:27.339Z,17.80
2017-08-27T23:26:01.395Z,17.80
2017-08-27T23:28:31.552Z,17.50
2017-08-27T23:31:00.389Z,17.70
2017-08-27T23:33:31.421Z,17.70
2017-08-27T23:35:59.556Z,17.70
2017-08-27T23:38:39.368Z,17.70
2017-08-27T23:41:06.468Z,17.60
2017-08-27T23:43:33.126Z,17.60
2017-08-27T23:46:01.777Z,17.90
2017-08-27T23:48:29.806Z,17.50
2017-08-27T23:51:01.743Z,17.40
2017-08-27T23:53:30.591Z,17.40
2017-08-27T23:55:59.538Z,17.40
2017-08-27T23:58:33.419Z,17.50
